Terminal Aerodrome Forecast
Issued by NWS Shreveport, LA

Home | Current Version | Previous Version | Text Only | Print | Product List | Glossary On
Versions: 1 2 3 4 5 6 7 8 9 10 11 12 13
000
FTUS44 KSHV 181700
TAFMLU
TAF
KMLU 181724Z 1818/1918 VRB04KT P6SM OVC029
     FM182300 07004KT P6SM OVC020
     FM191000 05006KT 5SM BR OVC015
     FM191600 05008KT 4SM -RA BR OVC007=

USA.gov is the U.S. government's official web portal to all federal, state and local government web resources and services.